createdAt,value
2018-11-02T00:02:06.300Z,9.60
2018-11-02T00:04:35.289Z,9.40
2018-11-02T00:07:04.282Z,9.50
2018-11-02T00:09:33.281Z,9.70
2018-11-02T00:12:02.242Z,9.70
2018-11-02T00:14:31.276Z,9.80
2018-11-02T00:17:00.250Z,9.90
2018-11-02T00:19:32.134Z,10.00
2018-11-02T00:22:02.524Z,10.00
2018-11-02T00:24:31.632Z,9.90
2018-11-02T00:27:01.136Z,9.90
2018-11-02T00:29:31.376Z,10.20
2018-11-02T00:32:00.473Z,10.10
2018-11-02T00:34:29.684Z,10.00
2018-11-02T00:36:58.698Z,10.10
2018-11-02T00:39:27.692Z,10.10
2018-11-02T00:41:56.676Z,10.10
2018-11-02T00:44:25.659Z,10.20
2018-11-02T00:46:54.665Z,10.20
2018-11-02T00:49:23.664Z,10.30
2018-11-02T00:51:52.616Z,10.10
2018-11-02T00:54:21.623Z,10.00
2018-11-02T00:56:50.597Z,10.10
2018-11-02T00:59:19.586Z,10.20
2018-11-02T01:01:48.551Z,10.30
2018-11-02T01:04:17.550Z,10.20
2018-11-02T01:06:46.524Z,10.20
2018-11-02T01:09:15.520Z,10.40
2018-11-02T01:11:44.578Z,10.40
2018-11-02T01:14:13.611Z,10.50
2018-11-02T01:16:42.715Z,10.40
2018-11-02T01:19:11.626Z,10.50
2018-11-02T01:21:40.580Z,10.50
2018-11-02T01:24:09.590Z,10.40
2018-11-02T01:26:38.584Z,10.20
2018-11-02T01:29:07.605Z,10.10
2018-11-02T01:31:36.562Z,10.10
2018-11-02T01:34:05.704Z,10.10
2018-11-02T01:36:34.717Z,10.10
2018-11-02T01:39:04.229Z,10.30
2018-11-02T01:41:33.204Z,10.40
2018-11-02T01:44:02.272Z,10.50
2018-11-02T01:46:31.520Z,10.40
2018-11-02T01:49:00.488Z,10.40
2018-11-02T01:51:29.466Z,10.40
2018-11-02T01:53:58.457Z,10.30
2018-11-02T01:56:27.453Z,10.20
2018-11-02T01:58:56.449Z,10.10
2018-11-02T02:01:25.429Z,10.20
2018-11-02T02:03:54.442Z,10.20
2018-11-02T02:06:23.442Z,10.20
2018-11-02T02:08:52.479Z,10.00
2018-11-02T02:11:21.541Z,10.10
2018-11-02T02:13:50.551Z,10.10
2018-11-02T02:16:19.537Z,10.00
2018-11-02T02:18:48.524Z,10.00
2018-11-02T02:21:17.523Z,10.10
2018-11-02T02:23:46.519Z,10.00
2018-11-02T02:26:15.607Z,10.00
2018-11-02T02:28:44.629Z,10.10
2018-11-02T02:31:13.627Z,10.20
2018-11-02T02:33:42.618Z,10.20
2018-11-02T02:36:11.674Z,10.20
2018-11-02T02:38:40.681Z,10.10
2018-11-02T02:41:09.674Z,10.10
2018-11-02T02:43:38.654Z,10.00
2018-11-02T02:46:07.671Z,10.10
2018-11-02T02:48:36.683Z,10.20
2018-11-02T02:51:06.277Z,10.30
2018-11-02T02:53:35.249Z,10.30
2018-11-02T02:56:04.264Z,10.30
2018-11-02T02:58:33.248Z,10.40
2018-11-02T03:01:02.271Z,10.30
2018-11-02T03:03:31.280Z,10.40
2018-11-02T03:06:00.297Z,10.40
2018-11-02T03:08:29.313Z,10.40
2018-11-02T03:10:58.383Z,10.40
2018-11-02T03:13:27.294Z,10.50
2018-11-02T03:15:56.284Z,10.50
2018-11-02T03:18:25.265Z,10.50
2018-11-02T03:20:54.217Z,10.50
2018-11-02T03:23:23.213Z,10.50
2018-11-02T03:25:52.221Z,10.60
2018-11-02T03:28:21.229Z,10.50
2018-11-02T03:30:50.298Z,10.50
2018-11-02T03:33:19.297Z,10.50
2018-11-02T03:35:48.267Z,10.60
2018-11-02T03:38:17.267Z,10.60
2018-11-02T03:40:46.309Z,10.70
2018-11-02T03:43:15.263Z,10.80
2018-11-02T03:45:44.260Z,10.70
2018-11-02T03:48:13.282Z,10.90
2018-11-02T03:50:42.726Z,10.90
2018-11-02T03:53:11.713Z,11.00
2018-11-02T03:55:40.762Z,11.00
2018-11-02T03:58:09.732Z,10.90
2018-11-02T04:00:40.885Z,10.80
2018-11-02T04:03:09.861Z,10.80
2018-11-02T04:05:38.835Z,10.90
2018-11-02T04:08:07.820Z,10.90
2018-11-02T04:10:36.834Z,10.80
2018-11-02T04:13:05.797Z,10.80
2018-11-02T04:15:34.788Z,10.70
2018-11-02T04:18:03.765Z,10.70
2018-11-02T04:20:32.763Z,10.80
2018-11-02T04:23:01.709Z,10.80
2018-11-02T04:25:30.744Z,10.90
2018-11-02T04:27:59.752Z,10.90
2018-11-02T04:30:28.713Z,10.90
2018-11-02T04:32:57.713Z,11.00
2018-11-02T04:35:26.681Z,11.00
2018-11-02T04:37:55.712Z,11.00
2018-11-02T04:40:24.703Z,10.80
2018-11-02T04:42:53.712Z,10.90
2018-11-02T04:45:43.208Z,11.00
2018-11-02T04:48:12.885Z,10.90
2018-11-02T04:50:42.137Z,11.00
2018-11-02T04:53:11.096Z,11.10
2018-11-02T04:55:40.065Z,11.20
2018-11-02T04:58:09.068Z,11.20
2018-11-02T05:00:38.072Z,11.20
2018-11-02T05:03:07.075Z,11.20
2018-11-02T05:05:36.051Z,11.10
2018-11-02T05:08:05.078Z,11.10
2018-11-02T05:10:41.332Z,11.10
2018-11-02T05:13:10.338Z,11.10
2018-11-02T05:15:39.312Z,11.00
2018-11-02T05:18:08.392Z,10.90
2018-11-02T05:20:37.362Z,11.00
2018-11-02T05:23:06.368Z,11.10
2018-11-02T05:25:35.354Z,11.10
2018-11-02T05:28:04.395Z,11.10
2018-11-02T05:30:33.538Z,11.00
2018-11-02T05:33:02.573Z,11.00
2018-11-02T05:35:31.551Z,11.00
2018-11-02T05:38:00.599Z,11.00
2018-11-02T05:40:29.583Z,11.10
2018-11-02T05:42:58.594Z,11.20
2018-11-02T05:45:27.645Z,11.10
2018-11-02T05:47:56.656Z,11.10
2018-11-02T05:50:25.805Z,11.20
2018-11-02T05:52:54.796Z,11.20
2018-11-02T05:55:23.913Z,11.20
2018-11-02T05:57:52.931Z,11.30
2018-11-02T06:00:21.958Z,11.40
2018-11-02T06:02:50.970Z,11.40
2018-11-02T06:05:20.010Z,11.10
2018-11-02T06:07:49.080Z,11.20
2018-11-02T06:10:18.053Z,11.40
2018-11-02T06:12:47.072Z,11.50
2018-11-02T06:15:16.040Z,11.60
2018-11-02T06:17:45.037Z,11.50
2018-11-02T06:20:14.099Z,11.50
2018-11-02T06:22:43.113Z,11.50
2018-11-02T06:25:14.771Z,11.50
2018-11-02T06:27:44.630Z,11.60
2018-11-02T06:30:14.054Z,11.50
2018-11-02T06:32:43.178Z,11.50
2018-11-02T06:35:12.134Z,11.50
2018-11-02T06:37:42.520Z,11.50
2018-11-02T06:40:17.789Z,11.30
2018-11-02T06:42:46.851Z,11.30
2018-11-02T06:45:15.909Z,11.20
2018-11-02T06:47:45.226Z,11.30
2018-11-02T06:50:14.542Z,11.30
2018-11-02T06:52:43.568Z,11.40
2018-11-02T06:55:12.543Z,11.40
2018-11-02T06:57:41.557Z,11.60
2018-11-02T07:00:12.356Z,12.00
2018-11-02T07:02:41.741Z,12.80
2018-11-02T07:05:10.749Z,13.20
2018-11-02T07:07:39.826Z,13.60
2018-11-02T07:10:09.508Z,13.80
2018-11-02T07:12:38.512Z,13.90
2018-11-02T07:15:07.714Z,14.20
2018-11-02T07:17:36.945Z,14.30
2018-11-02T07:20:06.557Z,14.50
2018-11-02T07:22:35.618Z,15.10
2018-11-02T07:25:07.710Z,15.80
2018-11-02T07:27:36.834Z,16.30
2018-11-02T07:30:11.991Z,16.70
2018-11-02T07:35:10.900Z,17.40
2018-11-02T07:37:39.910Z,17.20
2018-11-02T07:40:10.352Z,17.10
2018-11-02T07:42:39.881Z,16.30
2018-11-02T07:45:12.869Z,15.90
2018-11-02T07:47:42.470Z,15.70
2018-11-02T07:50:12.273Z,15.20
2018-11-02T07:52:41.649Z,15.10
2018-11-02T07:55:17.362Z,15.00
2018-11-02T07:57:47.156Z,15.30
2018-11-02T08:00:18.066Z,15.10
2018-11-02T08:02:47.693Z,15.30
2018-11-02T08:05:25.378Z,15.50
2018-11-02T08:07:59.698Z,15.10
2018-11-02T08:10:29.797Z,15.60
2018-11-02T08:12:58.960Z,15.80
2018-11-02T08:15:28.166Z,15.60
2018-11-02T08:18:09.387Z,15.50
2018-11-02T08:20:46.064Z,15.80
2018-11-02T08:23:15.160Z,16.10
2018-11-02T08:25:53.799Z,15.50
2018-11-02T08:28:25.964Z,15.20
2018-11-02T08:30:54.997Z,15.00
2018-11-02T08:33:25.576Z,14.80
2018-11-02T08:35:55.275Z,14.30
2018-11-02T08:38:39.105Z,14.10
2018-11-02T08:41:09.381Z,13.80
2018-11-02T08:43:38.387Z,13.70
2018-11-02T08:46:13.146Z,13.70
2018-11-02T08:51:22.139Z,13.50
2018-11-02T08:53:55.149Z,13.60
2018-11-02T08:56:34.754Z,13.60
2018-11-02T08:59:04.985Z,13.40
2018-11-02T09:01:42.360Z,13.10
2018-11-02T09:04:12.368Z,13.30
2018-11-02T09:06:47.752Z,13.20
2018-11-02T09:09:21.477Z,13.10
2018-11-02T09:11:57.608Z,13.20
2018-11-02T09:14:37.273Z,12.60
2018-11-02T09:17:08.678Z,12.70
2018-11-02T09:19:44.233Z,12.90
2018-11-02T09:22:21.297Z,12.80
2018-11-02T09:24:55.116Z,12.90
2018-11-02T09:27:25.993Z,12.90
2018-11-02T09:29:56.379Z,13.00
2018-11-02T09:32:33.150Z,13.10
2018-11-02T09:35:11.105Z,13.20
2018-11-02T09:37:41.059Z,13.30
2018-11-02T09:40:11.256Z,13.40
2018-11-02T09:42:40.257Z,13.40
2018-11-02T09:45:11.632Z,13.50
2018-11-02T09:47:40.723Z,13.60
2018-11-02T09:50:10.579Z,13.50
2018-11-02T09:52:39.969Z,13.60
2018-11-02T09:55:11.543Z,13.80
2018-11-02T09:57:47.792Z,13.50
2018-11-02T10:00:20.953Z,13.70
2018-11-02T10:02:51.725Z,13.60
2018-11-02T10:05:25.076Z,13.40
2018-11-02T10:08:26.492Z,13.30
2018-11-02T10:11:04.946Z,13.30
2018-11-02T10:13:38.947Z,13.20
2018-11-02T10:16:22.811Z,13.20
2018-11-02T10:18:58.095Z,13.10
2018-11-02T10:21:38.461Z,13.20
2018-11-02T10:24:09.403Z,13.20
2018-11-02T10:26:42.590Z,13.10
2018-11-02T10:29:16.934Z,13.10
2018-11-02T10:31:47.677Z,13.30
2018-11-02T10:34:17.307Z,13.40
2018-11-02T10:36:47.491Z,13.00
2018-11-02T10:39:18.111Z,13.10
2018-11-02T10:41:55.553Z,13.30
2018-11-02T10:44:37.282Z,13.40
2018-11-02T10:47:10.591Z,13.50
2018-11-02T10:49:40.766Z,13.30
2018-11-02T10:52:11.856Z,13.20
2018-11-02T10:54:42.395Z,13.40
2018-11-02T10:57:12.207Z,13.40
2018-11-02T10:59:48.800Z,13.60
2018-11-02T11:02:36.974Z,13.50
2018-11-02T11:05:08.629Z,13.30
2018-11-02T11:07:54.959Z,13.60
2018-11-02T11:10:30.108Z,13.50
2018-11-02T11:13:00.852Z,13.20
2018-11-02T11:15:31.070Z,13.30
2018-11-02T11:18:00.809Z,13.40
2018-11-02T11:20:29.850Z,13.60
2018-11-02T11:22:59.436Z,13.50
2018-11-02T11:25:28.401Z,13.60
2018-11-02T11:27:57.400Z,13.80
2018-11-02T11:30:26.364Z,13.70
2018-11-02T11:32:55.314Z,13.70
2018-11-02T11:35:24.252Z,13.80
2018-11-02T11:37:53.256Z,13.70
2018-11-02T11:40:22.447Z,13.60
2018-11-02T11:42:51.424Z,13.60
2018-11-02T11:45:20.488Z,13.50
2018-11-02T11:47:49.473Z,13.50
2018-11-02T11:50:21.036Z,13.30
2018-11-02T11:52:51.121Z,13.50
2018-11-02T11:55:20.334Z,13.40
2018-11-02T11:57:49.450Z,13.50
2018-11-02T12:00:21.994Z,13.50
2018-11-02T12:02:55.705Z,13.50
2018-11-02T12:05:28.989Z,13.60
2018-11-02T12:07:58.596Z,13.60
2018-11-02T12:10:27.826Z,13.70
2018-11-02T12:12:56.596Z,13.60
2018-11-02T12:15:25.547Z,13.70
2018-11-02T12:17:54.519Z,13.50
2018-11-02T12:20:24.980Z,13.60
2018-11-02T12:22:55.629Z,13.60
2018-11-02T12:25:24.600Z,13.30
2018-11-02T12:27:53.583Z,13.40
2018-11-02T12:30:22.602Z,13.50
2018-11-02T12:32:51.529Z,13.30
2018-11-02T12:35:21.008Z,13.30
2018-11-02T12:37:49.974Z,13.50
2018-11-02T12:40:20.215Z,13.60
2018-11-02T12:42:50.140Z,13.40
2018-11-02T12:45:20.151Z,13.40
2018-11-02T12:47:49.218Z,13.30
2018-11-02T12:50:21.506Z,13.30
2018-11-02T12:52:51.420Z,13.40
2018-11-02T12:55:21.559Z,13.40
2018-11-02T12:57:50.920Z,13.10
2018-11-02T13:00:23.130Z,13.10
2018-11-02T13:02:52.669Z,13.30
2018-11-02T13:05:21.644Z,13.30
2018-11-02T13:07:50.751Z,13.50
2018-11-02T13:10:20.796Z,13.40
2018-11-02T13:12:49.741Z,13.40
2018-11-02T13:15:19.970Z,13.50
2018-11-02T13:17:50.266Z,13.40
2018-11-02T13:20:19.348Z,13.40
2018-11-02T13:22:49.217Z,13.40
2018-11-02T13:25:20.378Z,13.50
2018-11-02T13:27:50.126Z,13.30
2018-11-02T13:30:19.325Z,13.50
2018-11-02T13:32:48.205Z,13.50
2018-11-02T13:35:18.474Z,13.40
2018-11-02T13:37:48.078Z,13.30
2018-11-02T13:40:17.883Z,13.20
2018-11-02T13:42:46.939Z,13.30
2018-11-02T13:45:17.206Z,13.40
2018-11-02T13:47:46.388Z,13.40
2018-11-02T13:50:16.277Z,13.30
2018-11-02T13:52:45.498Z,13.20
2018-11-02T13:55:14.804Z,13.20
2018-11-02T13:57:50.602Z,13.30
2018-11-02T14:00:29.834Z,13.40
2018-11-02T14:02:59.669Z,13.40
2018-11-02T14:05:29.126Z,13.30
2018-11-02T14:07:58.078Z,13.20
2018-11-02T14:10:37.513Z,13.10
2018-11-02T14:13:06.771Z,13.00
2018-11-02T14:15:37.271Z,13.10
2018-11-02T14:18:16.691Z,13.30
2018-11-02T14:20:46.369Z,13.70
2018-11-02T14:23:23.228Z,13.70
2018-11-02T14:25:54.247Z,13.50
2018-11-02T14:28:27.301Z,13.50
2018-11-02T14:30:56.358Z,13.30
2018-11-02T14:33:25.328Z,13.20
2018-11-02T14:35:54.259Z,13.20
2018-11-02T14:38:23.203Z,13.30
2018-11-02T14:40:52.230Z,13.20
2018-11-02T14:43:21.167Z,13.10
2018-11-02T14:45:50.209Z,13.20
2018-11-02T14:48:19.156Z,13.20
2018-11-02T14:50:48.126Z,13.10
2018-11-02T14:53:17.100Z,13.10
2018-11-02T14:55:46.082Z,13.00
2018-11-02T14:58:15.025Z,13.20
2018-11-02T15:00:45.062Z,13.00
2018-11-02T15:03:24.712Z,13.00
2018-11-02T15:05:54.897Z,13.00
2018-11-02T15:08:23.877Z,13.00
2018-11-02T15:10:52.886Z,13.10
2018-11-02T15:13:21.841Z,13.20
2018-11-02T15:15:50.879Z,13.00
2018-11-02T15:18:19.871Z,13.10
2018-11-02T15:20:48.820Z,13.20
2018-11-02T15:23:17.749Z,13.00
2018-11-02T15:25:46.714Z,12.90
2018-11-02T15:28:15.668Z,12.70
2018-11-02T15:30:44.626Z,12.60
2018-11-02T15:33:13.551Z,12.80
2018-11-02T15:35:42.597Z,12.80
2018-11-02T15:38:11.559Z,12.90
2018-11-02T15:40:40.574Z,12.90
2018-11-02T15:43:09.524Z,12.90
2018-11-02T15:45:38.502Z,12.90
2018-11-02T15:48:07.484Z,12.80
2018-11-02T15:50:36.905Z,12.70
2018-11-02T15:53:05.910Z,12.70
2018-11-02T15:55:34.913Z,12.70
2018-11-02T15:58:04.666Z,12.70
2018-11-02T16:00:33.649Z,12.80
2018-11-02T16:03:02.720Z,12.60
2018-11-02T16:05:31.701Z,12.60
2018-11-02T16:08:02.129Z,12.70
2018-11-02T16:10:31.225Z,12.50
2018-11-02T16:13:01.793Z,12.30
2018-11-02T16:15:30.740Z,12.30
2018-11-02T16:17:59.730Z,12.20
2018-11-02T16:20:29.615Z,12.20
2018-11-02T16:22:58.878Z,12.20
2018-11-02T16:25:27.863Z,12.20
2018-11-02T16:27:56.979Z,12.10
2018-11-02T16:30:31.750Z,12.10
2018-11-02T16:33:10.459Z,12.10
2018-11-02T16:35:40.416Z,12.00
2018-11-02T16:38:16.860Z,11.90
2018-11-02T16:40:53.652Z,11.90
2018-11-02T16:43:23.941Z,11.90
2018-11-02T16:45:53.385Z,12.20
2018-11-02T16:48:28.695Z,12.10
2018-11-02T16:51:07.478Z,12.20
2018-11-02T16:53:37.316Z,12.20
2018-11-02T16:56:15.577Z,12.20
2018-11-02T16:58:45.133Z,12.40
2018-11-02T17:01:14.152Z,12.30
2018-11-02T17:03:43.663Z,12.30
2018-11-02T17:06:12.701Z,12.20
2018-11-02T17:08:41.646Z,12.20
2018-11-02T17:11:10.619Z,12.10
2018-11-02T17:13:39.620Z,12.20
2018-11-02T17:16:08.649Z,12.30
2018-11-02T17:18:37.642Z,12.40
2018-11-02T17:21:06.655Z,12.30
2018-11-02T17:23:35.676Z,12.30
2018-11-02T17:26:05.061Z,12.30
2018-11-02T17:28:35.203Z,12.00
2018-11-02T17:31:04.206Z,11.80
2018-11-02T17:33:34.212Z,11.70
2018-11-02T17:36:04.280Z,11.80
2018-11-02T17:38:34.397Z,12.10
2018-11-02T17:41:03.372Z,12.00
2018-11-02T17:43:32.916Z,12.00
2018-11-02T17:46:01.881Z,11.90
2018-11-02T17:48:30.959Z,11.80
2018-11-02T17:50:59.943Z,11.90
2018-11-02T17:53:29.041Z,11.80
2018-11-02T17:55:58.096Z,11.80
2018-11-02T17:58:27.250Z,11.90
2018-11-02T18:00:56.217Z,11.90
2018-11-02T18:03:25.214Z,12.00
2018-11-02T18:05:54.242Z,12.00
2018-11-02T18:08:23.267Z,11.80
2018-11-02T18:10:52.163Z,11.70
2018-11-02T18:13:21.148Z,11.60
2018-11-02T18:15:50.140Z,11.50
2018-11-02T18:18:20.272Z,11.40
2018-11-02T18:20:49.256Z,11.30
2018-11-02T18:23:18.219Z,11.30
2018-11-02T18:25:47.175Z,11.30
2018-11-02T18:28:16.177Z,11.20
2018-11-02T18:30:45.165Z,11.20
2018-11-02T18:33:14.272Z,11.20
2018-11-02T18:35:43.256Z,11.00
2018-11-02T18:38:13.150Z,10.70
2018-11-02T18:40:42.222Z,10.10
2018-11-02T18:43:11.228Z,9.90
2018-11-02T18:45:40.254Z,9.80
2018-11-02T18:48:09.310Z,9.70
2018-11-02T18:50:38.285Z,9.70
2018-11-02T18:53:07.307Z,9.70
2018-11-02T18:55:36.305Z,9.80
2018-11-02T18:58:05.574Z,9.80
2018-11-02T19:00:34.529Z,9.60
2018-11-02T19:03:03.507Z,9.60
2018-11-02T19:05:32.543Z,9.70
2018-11-02T19:08:01.566Z,10.00
2018-11-02T19:10:30.599Z,10.00
2018-11-02T19:13:00.486Z,10.10
2018-11-02T19:15:29.472Z,10.20
2018-11-02T19:17:58.507Z,10.30
2018-11-02T19:20:27.650Z,10.30
2018-11-02T19:22:56.516Z,10.10
2018-11-02T19:25:25.542Z,10.30
2018-11-02T19:27:54.552Z,10.30
2018-11-02T19:30:23.553Z,10.30
2018-11-02T19:32:52.592Z,10.40
2018-11-02T19:35:21.743Z,10.50
2018-11-02T19:37:50.631Z,10.50
2018-11-02T19:40:19.633Z,10.60
2018-11-02T19:42:48.637Z,10.60
2018-11-02T19:45:17.655Z,10.60
2018-11-02T19:48:06.696Z,10.80
2018-11-02T19:50:35.733Z,10.60
2018-11-02T19:53:04.968Z,10.80
2018-11-02T19:55:34.071Z,10.40
2018-11-02T19:58:03.051Z,10.40
2018-11-02T20:00:32.074Z,10.40
2018-11-02T20:03:01.095Z,10.50
2018-11-02T20:05:30.095Z,10.10
2018-11-02T20:07:59.118Z,10.30
2018-11-02T20:10:28.189Z,10.30
2018-11-02T20:12:57.216Z,10.30
2018-11-02T20:15:26.217Z,10.40
2018-11-02T20:17:55.304Z,10.40
2018-11-02T20:20:24.258Z,10.30
2018-11-02T20:22:53.314Z,10.10
2018-11-02T20:25:23.056Z,9.90
2018-11-02T20:27:52.063Z,9.90
2018-11-02T20:30:21.824Z,9.90
2018-11-02T20:32:50.812Z,9.70
2018-11-02T20:35:19.808Z,9.30
2018-11-02T20:37:48.812Z,9.20
2018-11-02T20:40:18.821Z,9.20
2018-11-02T20:42:47.937Z,9.20
2018-11-02T20:45:17.328Z,9.80
2018-11-02T20:47:51.652Z,10.00
2018-11-02T20:50:20.679Z,10.10
2018-11-02T20:52:50.186Z,10.00
2018-11-02T20:55:19.453Z,9.90
2018-11-02T20:57:48.441Z,9.40
2018-11-02T21:00:24.355Z,9.30
2018-11-02T21:02:53.689Z,9.30
2018-11-02T21:05:23.044Z,9.40
2018-11-02T21:07:52.607Z,9.40
2018-11-02T21:10:22.122Z,9.50
2018-11-02T21:12:51.425Z,10.00
2018-11-02T21:15:21.747Z,10.20
2018-11-02T21:17:51.129Z,10.10
2018-11-02T21:20:21.525Z,9.90
2018-11-02T21:22:50.433Z,10.00
2018-11-02T21:25:19.435Z,10.00
2018-11-02T21:27:48.860Z,10.30
2018-11-02T21:30:20.234Z,10.20
2018-11-02T21:32:49.915Z,10.10
2018-11-02T21:35:19.440Z,10.10
2018-11-02T21:37:48.936Z,10.10
2018-11-02T21:40:19.219Z,10.10
2018-11-02T21:42:48.191Z,9.90
2018-11-02T21:45:18.560Z,9.70
2018-11-02T21:47:47.632Z,9.70
2018-11-02T21:50:16.982Z,9.60
2018-11-02T21:52:45.964Z,9.60
2018-11-02T21:55:14.980Z,9.70
2018-11-02T21:57:44.020Z,9.80
2018-11-02T22:00:20.817Z,9.80
2018-11-02T22:02:49.835Z,9.90
2018-11-02T22:05:19.654Z,9.70
2018-11-02T22:07:49.753Z,9.70
2018-11-02T22:10:18.955Z,9.70
2018-11-02T22:12:47.931Z,9.70
2018-11-02T22:15:16.947Z,9.60
2018-11-02T22:17:45.909Z,9.80
2018-11-02T22:20:15.775Z,9.80
2018-11-02T22:22:44.783Z,9.80
2018-11-02T22:25:14.568Z,10.10
2018-11-02T22:27:43.532Z,9.90
2018-11-02T22:30:15.726Z,10.10
2018-11-02T22:32:44.711Z,10.00
2018-11-02T22:35:14.334Z,9.90
2018-11-02T22:37:43.612Z,9.80
2018-11-02T22:40:13.255Z,9.60
2018-11-02T22:42:42.729Z,9.70
2018-11-02T22:45:12.877Z,9.60
2018-11-02T22:47:42.732Z,9.70
2018-11-02T22:50:11.722Z,9.70
2018-11-02T22:52:40.704Z,9.80
2018-11-02T22:55:09.975Z,10.10
2018-11-02T22:57:38.967Z,10.10
2018-11-02T23:00:17.691Z,9.90
2018-11-02T23:02:47.467Z,9.90
2018-11-02T23:05:16.494Z,9.80
2018-11-02T23:07:45.773Z,9.70
2018-11-02T23:10:14.781Z,9.70
2018-11-02T23:12:43.739Z,9.60
2018-11-02T23:15:13.187Z,9.50
2018-11-02T23:17:42.229Z,9.60
2018-11-02T23:20:13.223Z,9.80
2018-11-02T23:22:42.212Z,9.80
2018-11-02T23:25:11.920Z,10.00
2018-11-02T23:27:42.234Z,10.00
2018-11-02T23:30:11.764Z,9.80
2018-11-02T23:32:40.731Z,9.80
2018-11-02T23:35:10.058Z,9.70
2018-11-02T23:37:39.050Z,9.70
2018-11-02T23:40:08.774Z,9.90
2018-11-02T23:42:37.730Z,9.90
2018-11-02T23:45:07.335Z,9.70
2018-11-02T23:47:36.262Z,9.70
2018-11-02T23:50:07.076Z,9.70
2018-11-02T23:52:36.050Z,9.70
2018-11-02T23:55:05.383Z,9.70
2018-11-02T23:57:34.361Z,9.70
